createdAt,value
2017-06-02T08:50:10.377Z,5.32
2017-06-02T12:34:56.309Z,4.22
2017-06-02T12:54:02.046Z,7.22
2017-06-02T15:54:06.906Z,5.94
2017-06-02T16:07:05.239Z,4.02
2017-06-02T16:09:33.532Z,5.90
2017-06-02T16:12:01.114Z,4.78
2017-06-02T16:14:34.762Z,5.74
2017-06-02T16:17:03.736Z,4.78
2017-06-02T16:19:36.816Z,5.78
2017-06-02T16:22:04.078Z,4.70
2017-06-02T16:24:30.953Z,4.62
2017-06-02T16:29:30.101Z,7.02
2017-06-02T16:31:56.976Z,3.70
2017-06-02T16:34:24.378Z,4.46
2017-06-02T16:36:51.615Z,5.10
2017-06-02T16:39:20.265Z,4.16
2017-06-02T16:41:55.206Z,4.46
2017-06-02T16:44:33.416Z,4.34
2017-06-02T16:47:08.996Z,4.42
2017-06-02T16:49:46.743Z,4.46
2017-06-02T16:52:15.954Z,4.28
2017-06-02T16:54:42.939Z,4.46
2017-06-02T16:57:11.492Z,4.62
2017-06-02T17:02:33.954Z,3.90
2017-06-02T17:05:05.650Z,4.50
2017-06-02T17:07:33.453Z,6.14
2017-06-02T17:12:38.128Z,4.40
2017-06-02T17:15:05.807Z,4.02
2017-06-02T17:20:18.853Z,4.24
2017-06-02T17:22:45.720Z,4.58
2017-06-02T17:25:24.440Z,3.74
2017-06-02T17:27:58.598Z,5.24
2017-06-02T17:30:27.195Z,4.72
2017-06-02T17:33:00.425Z,6.04
2017-06-02T17:38:13.130Z,4.62
2017-06-02T17:40:50.719Z,5.36
2017-06-02T17:43:17.583Z,4.52
2017-06-02T17:45:58.046Z,3.98
2017-06-02T17:48:24.947Z,4.50
2017-06-02T17:50:58.416Z,3.76
2017-06-02T17:56:17.627Z,7.98
2017-06-02T17:58:45.033Z,5.86
2017-06-02T18:01:11.955Z,4.62
2017-06-02T18:03:45.886Z,5.74
2017-06-02T18:06:12.753Z,7.14
2017-06-02T18:08:40.911Z,3.90
2017-06-02T18:11:07.843Z,4.76
2017-06-02T18:13:38.596Z,4.18
2017-06-02T18:16:05.701Z,3.50
2017-06-02T18:18:32.849Z,4.28
2017-06-02T18:20:59.843Z,5.54
2017-06-02T18:23:27.168Z,4.38
2017-06-02T18:25:54.157Z,4.44
2017-06-02T18:28:21.266Z,5.16
2017-06-02T18:30:48.686Z,4.36
2017-06-02T18:33:15.481Z,3.26
2017-06-02T18:35:42.578Z,4.74
2017-06-02T18:38:09.868Z,4.12
2017-06-02T18:40:37.107Z,3.72
2017-06-02T18:43:04.305Z,8.66
2017-06-02T18:45:31.619Z,3.96
2017-06-02T18:47:58.704Z,5.36
2017-06-02T18:50:26.065Z,4.36
2017-06-02T18:52:53.500Z,5.06
2017-06-02T18:55:20.582Z,3.70
2017-06-02T18:57:47.389Z,4.08
2017-06-02T19:00:16.662Z,3.84
2017-06-02T19:02:51.602Z,5.12
2017-06-02T19:05:19.522Z,4.42
2017-06-02T19:16:02.409Z,3.60
2017-06-02T19:18:37.957Z,3.42
2017-06-02T19:21:05.751Z,4.84
2017-06-02T19:23:42.389Z,5.62
2017-06-02T19:26:16.515Z,4.04
2017-06-02T19:31:36.866Z,4.86
2017-06-02T19:34:05.899Z,3.90
2017-06-02T19:39:28.199Z,4.54
2017-06-02T19:44:41.996Z,5.72
2017-06-02T19:47:08.917Z,4.38
2017-06-02T19:49:37.413Z,4.44
2017-06-02T19:57:35.489Z,5.18
2017-06-02T20:00:07.350Z,5.60
2017-06-02T20:02:39.029Z,5.54
2017-06-02T20:05:12.180Z,5.72
2017-06-02T20:10:42.316Z,6.58
2017-06-02T20:13:17.213Z,13.20
2017-06-02T20:15:47.228Z,9.78
2017-06-02T20:18:14.857Z,7.94
2017-06-02T20:20:51.904Z,7.60
2017-06-02T20:25:57.981Z,6.50
2017-06-02T20:28:38.278Z,6.84
2017-06-02T20:31:05.723Z,6.26
2017-06-02T20:33:33.705Z,5.32
2017-06-02T20:36:00.899Z,6.06
2017-06-02T20:38:29.165Z,6.60
2017-06-02T20:40:58.630Z,6.38
2017-06-02T20:43:26.344Z,6.94
2017-06-02T20:46:11.146Z,8.06
2017-06-02T20:48:38.045Z,8.32
2017-06-02T20:51:07.098Z,8.62
2017-06-02T20:53:33.886Z,8.88
2017-06-02T20:56:01.895Z,9.40
2017-06-02T20:58:34.006Z,8.92
2017-06-02T21:01:03.078Z,12.30
2017-06-02T21:03:31.084Z,11.60
2017-06-02T21:05:58.671Z,12.26
2017-06-02T21:08:28.930Z,13.92
2017-06-02T21:21:18.552Z,13.96
2017-06-02T21:23:49.885Z,13.70
2017-06-02T21:31:30.837Z,12.88
2017-06-02T21:33:59.729Z,14.24
2017-06-02T21:46:04.561Z,17.34
2017-06-02T21:53:46.046Z,16.52
2017-06-02T22:48:52.695Z,25.97
2017-06-02T23:22:18.956Z,24.67
2017-06-02T23:24:48.390Z,25.37
2017-06-02T23:27:18.018Z,26.48
2017-06-02T23:29:52.788Z,24.72
2017-06-02T23:38:06.251Z,24.10
2017-06-02T23:48:13.034Z,25.78
